Rechercher aéroport 
image banner adimage banner adimage banner ad
image banner ad

3PN9 - Phil Cain Memorial Field

Situé à Export, United States

ICAO - 3PN9, IATA -

Données fournies par Airmate  

Information générale

Coordonnées: N40°26'30" W79°33'0"
Élévation : 1210 feet MSL.
Variation magnétique : -09° East
Voir autres Aéroports à Pennsylvania

Données opérationnelles

Special qualification required
Heure actuelle UTC:
Heure actuelle locale:
Météo à : KLBE - Arnold Palmer Rgnl ( 22 km )
METAR: KLBE 152247Z 30006KT 20SM SCT044 21/13 A2991
TAF: KLBE 152100Z 1521/1618 32010KT P6SM BKN040 FM160000 33008KT P6SM SCT120 FM160300 32005KT P6SM SKC
Voir NOTAMs / SUP AIP / TFR affectant cet aéroport [VIEW]
Fréquences de communication: [VIEW]

Pistes:

Identifiant RWYQFULongueur (ft)Largeur (ft)SurfaceLDA (ft)
05700100GRASS
23700100GRASS

Coordonnées de l'aéroport

Adresse: Export United States

Vue satellite de 3PN9